Time;durP1;ratioP1;P1;durP2;ratioP2;P2;SDS_P1;SDS_P2;PMS_P1;PMS_P2;Temp;Humidity;BMP_temperature;BMP_pressure;BME280_temperature;BME280_humidity;BME280_pressure;Samples;Min_cycle;Max_cycle;Signal;HPM_P1;HPM_P2
2022/07/28 00:00:26;;;;;;;4.43;3.20;;;19.80;99.90;;;;;;5095085;28;20460;-74
2022/07/28 00:02:52;;;;;;;3.85;2.70;;;19.80;99.90;;;;;;5094718;28;20055;-72
2022/07/28 00:05:18;;;;;;;2.60;2.30;;;19.80;99.90;;;;;;5095355;28;20056;-73
2022/07/28 00:07:44;;;;;;;4.22;2.50;;;19.80;99.90;;;;;;5095047;28;20028;-73
2022/07/28 00:10:10;;;;;;;3.30;2.67;;;19.80;99.90;;;;;;5094683;28;20032;-73
2022/07/28 00:12:36;;;;;;;3.05;2.70;;;19.80;99.90;;;;;;5094961;28;20350;-74
2022/07/28 00:15:02;;;;;;;4.78;3.17;;;19.80;99.90;;;;;;5094233;28;20030;-73
2022/07/28 00:17:27;;;;;;;2.80;2.17;;;19.80;99.90;;;;;;5094887;28;20034;-73
2022/07/28 00:19:53;;;;;;;2.97;2.50;;;19.80;99.90;;;;;;5094504;28;20508;-73
2022/07/28 00:22:19;;;;;;;3.65;2.50;;;19.80;99.90;;;;;;5094533;28;20028;-73
2022/07/28 00:24:44;;;;;;;2.90;2.50;;;19.70;99.90;;;;;;5095132;28;20372;-74
2022/07/28 00:27:10;;;;;;;4.47;2.58;;;19.70;99.90;;;;;;5094284;28;20310;-73
2022/07/28 00:29:35;;;;;;;2.78;2.47;;;19.70;99.90;;;;;;5094143;28;20101;-73
2022/07/28 00:32:01;;;;;;;3.22;2.45;;;19.70;99.90;;;;;;5094115;28;20028;-73
2022/07/28 00:34:27;;;;;;;3.45;2.53;;;19.60;99.90;;;;;;5094382;28;20032;-74
2022/07/28 00:36:53;;;;;;;3.60;2.78;;;19.60;99.90;;;;;;5094142;28;20028;-72
2022/07/28 00:39:18;;;;;;;3.40;2.55;;;19.60;99.90;;;;;;5094419;28;20111;-73
2022/07/28 00:41:44;;;;;;;4.45;2.60;;;19.50;99.90;;;;;;5094445;28;20020;-74
2022/07/28 00:44:10;;;;;;;3.22;2.55;;;19.50;99.90;;;;;;5094047;28;20031;-74
2022/07/28 00:46:35;;;;;;;3.28;2.80;;;19.50;99.90;;;;;;5094273;28;20061;-74
2022/07/28 00:49:01;;;;;;;4.10;2.75;;;19.50;99.90;;;;;;5093424;28;20024;-73
2022/07/28 00:51:28;;;;;;;3.58;2.75;;;19.50;99.90;;;;;;5094262;28;20518;-73
2022/07/28 00:53:54;;;;;;;3.90;2.58;;;19.50;99.90;;;;;;5093741;28;20032;-72
2022/07/28 00:56:20;;;;;;;5.75;3.25;;;19.40;99.90;;;;;;5094009;28;20020;-74
2022/07/28 00:58:46;;;;;;;5.30;2.78;;;19.40;99.90;;;;;;5093805;28;20093;-73
2022/07/28 01:01:16;;;;;;;2.28;2.05;;;19.40;99.90;;;;;;5093325;28;20047;-73
2022/07/28 01:03:44;;;;;;;3.58;2.47;;;19.40;99.90;;;;;;5094015;28;20059;-73
2022/07/28 01:06:24;;;;;;;2.90;2.28;;;19.40;99.90;;;;;;5093679;28;20059;-73
2022/07/28 01:09:27;;;;;;;3.40;2.50;;;19.30;99.90;;;;;;5093866;28;20032;-74
2022/07/28 01:12:08;;;;;;;2.58;2.20;;;19.30;99.90;;;;;;5093999;28;20373;-74
2022/07/28 01:14:37;;;;;;;2.80;2.30;;;19.30;99.90;;;;;;5093616;28;20503;-73
2022/07/28 01:17:28;;;;;;;3.60;2.50;;;19.20;99.90;;;;;;5093615;28;20030;-71
2022/07/28 01:19:57;;;;;;;4.53;2.20;;;19.20;99.90;;;;;;5093467;28;20030;-73
2022/07/28 01:22:28;;;;;;;3.90;2.35;;;19.20;99.90;;;;;;5093838;28;20028;-73
2022/07/28 01:25:22;;;;;;;3.03;2.38;;;19.10;99.90;;;;;;5093439;28;20086;-73
2022/07/28 01:28:00;;;;;;;5.57;2.47;;;19.10;99.90;;;;;;5093669;28;20451;-74
2022/07/28 01:30:40;;;;;;;4.20;2.50;;;19.10;99.90;;;;;;5093749;28;20047;-74
2022/07/28 01:33:18;;;;;;;2.83;2.13;;;19.00;99.90;;;;;;5093122;28;20481;-75
2022/07/28 01:35:50;;;;;;;3.97;2.17;;;19.00;99.90;;;;;;5093625;28;20027;-74
2022/07/28 01:38:18;;;;;;;3.40;2.47;;;18.90;99.90;;;;;;5092821;28;20028;-74
2022/07/28 01:40:45;;;;;;;2.20;1.95;;;18.90;99.90;;;;;;5093091;28;20440;-73
2022/07/28 01:43:17;;;;;;;2.10;1.90;;;18.90;99.90;;;;;;5093172;28;20111;-73
2022/07/28 01:45:44;;;;;;;3.67;2.13;;;18.80;99.90;;;;;;5093254;28;20074;-74
2022/07/28 01:48:12;;;;;;;3.00;2.25;;;18.80;99.90;;;;;;5092370;28;20093;-75
2022/07/28 01:50:40;;;;;;;3.80;2.40;;;18.80;99.90;;;;;;5093450;28;20460;-73
2022/07/28 01:53:10;;;;;;;5.38;2.20;;;18.70;99.90;;;;;;5092832;28;20499;-74
2022/07/28 01:55:38;;;;;;;3.08;2.40;;;18.70;99.90;;;;;;5093328;28;20024;-73
2022/07/28 01:58:05;;;;;;;4.85;2.08;;;18.70;99.90;;;;;;5092781;28;20472;-72
2022/07/28 02:00:32;;;;;;;3.15;1.98;;;18.70;99.90;;;;;;5092215;28;20024;-73
2022/07/28 02:03:02;;;;;;;3.95;2.15;;;18.70;99.90;;;;;;5092188;28;20448;-73
2022/07/28 02:05:29;;;;;;;2.53;2.22;;;18.70;99.90;;;;;;5091210;28;20031;-73
2022/07/28 02:07:58;;;;;;;5.45;2.00;;;18.70;99.90;;;;;;5092982;28;20043;-73
2022/07/28 02:10:25;;;;;;;2.97;2.25;;;18.70;99.90;;;;;;5093434;28;20082;-73
2022/07/28 02:12:53;;;;;;;3.25;1.95;;;18.70;99.90;;;;;;5093107;28;20065;-73
2022/07/28 02:15:20;;;;;;;3.50;2.28;;;18.70;99.90;;;;;;5092565;28;20020;-74
2022/07/28 02:17:48;;;;;;;4.20;2.67;;;18.70;99.90;;;;;;5092964;28;20028;-73
2022/07/28 02:20:16;;;;;;;2.63;1.70;;;18.70;99.90;;;;;;5092544;28;20028;-73
2022/07/28 02:22:43;;;;;;;2.20;1.95;;;18.70;99.90;;;;;;5093045;28;20031;-73
2022/07/28 02:25:09;;;;;;;2.35;2.15;;;18.70;99.90;;;;;;5092461;28;20028;-73
2022/07/28 02:27:55;;;;;;;3.08;1.70;;;18.80;99.90;;;;;;5092585;28;20043;-73
2022/07/28 02:30:40;;;;;;;5.78;2.03;;;18.80;99.90;;;;;;5092027;28;20083;-74
2022/07/28 02:33:19;;;;;;;2.88;1.58;;;18.80;99.90;;;;;;5092203;28;20024;-73
2022/07/28 02:35:53;;;;;;;3.28;1.95;;;18.80;99.90;;;;;;5092655;28;20023;-73
2022/07/28 02:38:26;;;;;;;1.88;1.60;;;18.90;99.90;;;;;;5092537;28;20036;-73
2022/07/28 02:40:58;;;;;;;2.92;1.75;;;19.00;99.90;;;;;;5092841;28;20031;-74
2022/07/28 02:43:27;;;;;;;1.83;1.60;;;19.00;99.90;;;;;;5092336;28;20028;-73
2022/07/28 02:45:55;;;;;;;2.35;2.10;;;19.00;99.90;;;;;;5092751;28;20063;-74
2022/07/28 02:48:28;;;;;;;2.20;2.00;;;19.00;99.90;;;;;;5092221;28;20361;-74
2022/07/28 02:50:56;;;;;;;2.53;2.05;;;19.10;99.90;;;;;;5091571;28;20036;-74
2022/07/28 02:53:23;;;;;;;2.42;1.70;;;19.10;99.90;;;;;;5091941;28;20036;-73
2022/07/28 02:55:50;;;;;;;3.85;2.10;;;19.10;99.90;;;;;;5092633;28;20376;-73
2022/07/28 02:58:19;;;;;;;3.92;2.08;;;19.10;99.90;;;;;;5092259;28;20034;-72
2022/07/28 03:00:47;;;;;;;2.72;2.20;;;19.20;99.90;;;;;;5092475;28;20111;-74
2022/07/28 03:03:13;;;;;;;2.97;1.80;;;19.20;99.90;;;;;;5091963;28;20032;-73
2022/07/28 03:05:40;;;;;;;2.55;1.80;;;19.20;99.90;;;;;;5092531;28;20031;-74
2022/07/28 03:08:06;;;;;;;2.17;1.80;;;19.20;99.90;;;;;;5091989;28;20035;-73
2022/07/28 03:10:31;;;;;;;2.92;1.90;;;19.20;99.90;;;;;;5092459;28;20031;-74
2022/07/28 03:12:58;;;;;;;4.25;1.80;;;19.20;99.90;;;;;;5094865;28;20030;-73
2022/07/28 03:15:23;;;;;;;1.80;1.50;;;19.20;99.90;;;;;;5095712;28;20541;-73
2022/07/28 03:17:50;;;;;;;3.00;1.80;;;19.20;99.90;;;;;;5096257;28;20028;-73
2022/07/28 03:20:15;;;;;;;1.90;1.65;;;19.20;99.90;;;;;;5095307;28;20091;-73
2022/07/28 03:22:41;;;;;;;3.05;2.13;;;19.20;99.90;;;;;;5096066;28;20099;-74
2022/07/28 03:25:18;;;;;;;2.78;2.17;;;19.10;99.90;;;;;;5095254;28;20067;-73
2022/07/28 03:27:49;;;;;;;2.20;2.00;;;19.10;99.90;;;;;;5095686;28;20468;-73
2022/07/28 03:30:19;;;;;;;3.40;1.95;;;19.10;99.90;;;;;;5095244;28;20450;-73
2022/07/28 03:32:50;;;;;;;3.13;2.10;;;19.10;99.90;;;;;;5095780;28;20034;-73
2022/07/28 03:35:17;;;;;;;2.35;1.75;;;19.10;99.90;;;;;;5095680;28;20076;-73
2022/07/28 03:37:56;;;;;;;1.73;1.60;;;19.10;99.90;;;;;;5095701;28;20028;-73
2022/07/28 03:40:25;;;;;;;2.25;1.80;;;19.10;99.90;;;;;;5095334;28;20030;-74
2022/07/28 03:42:52;;;;;;;2.10;1.90;;;19.10;99.90;;;;;;5095112;28;20059;-73
2022/07/28 03:45:19;;;;;;;2.50;1.73;;;19.10;99.90;;;;;;5095115;28;20028;-73
2022/07/28 03:47:53;;;;;;;4.90;2.20;;;19.10;99.90;;;;;;5095453;28;20040;-73
2022/07/28 03:50:23;;;;;;;2.33;1.90;;;19.20;99.70;;;;;;5094705;28;20473;-74
2022/07/28 03:52:49;;;;;;;4.68;1.98;;;19.20;99.70;;;;;;5094138;28;20366;-74
2022/07/28 03:55:14;;;;;;;1.92;1.73;;;19.20;99.60;;;;;;5093756;28;20035;-73
2022/07/28 03:57:40;;;;;;;2.40;1.77;;;19.10;99.40;;;;;;5093815;28;20043;-73
2022/07/28 04:00:07;;;;;;;3.05;1.80;;;19.10;99.40;;;;;;5095208;28;20369;-73
2022/07/28 04:02:33;;;;;;;3.28;2.03;;;19.20;99.00;;;;;;5094537;28;20032;-73
2022/07/28 04:04:59;;;;;;;2.15;1.83;;;19.20;98.90;;;;;;5094173;28;20028;-74
2022/07/28 04:07:25;;;;;;;2.13;1.63;;;19.20;98.80;;;;;;5091029;28;20040;-73
2022/07/28 04:09:51;;;;;;;1.95;1.63;;;19.20;98.70;;;;;;5094519;28;20020;-73
2022/07/28 04:12:16;;;;;;;3.42;1.90;;;19.20;98.60;;;;;;5093554;28;20362;-72
2022/07/28 04:14:42;;;;;;;2.78;1.73;;;19.20;98.50;;;;;;5094727;28;20028;-74
2022/07/28 04:17:08;;;;;;;3.72;2.53;;;19.20;98.50;;;;;;5094475;28;20109;-73
2022/07/28 04:19:33;;;;;;;2.65;1.90;;;19.20;98.40;;;;;;5094728;28;20028;-73
2022/07/28 04:21:59;;;;;;;2.42;1.90;;;19.20;98.40;;;;;;5094367;28;20411;-74
2022/07/28 04:24:24;;;;;;;2.80;1.70;;;19.30;98.10;;;;;;5093371;28;20036;-73
2022/07/28 04:26:50;;;;;;;5.10;2.17;;;19.20;98.20;;;;;;5093317;28;20032;-73
2022/07/28 04:29:16;;;;;;;4.50;1.73;;;19.20;98.60;;;;;;5093977;28;20079;-74
2022/07/28 04:31:41;;;;;;;3.20;2.25;;;19.30;98.60;;;;;;5094430;28;20028;-72
2022/07/28 04:34:08;;;;;;;3.20;2.03;;;19.30;98.40;;;;;;5094376;28;20119;-73
2022/07/28 04:36:40;;;;;;;4.28;1.75;;;19.30;98.00;;;;;;5094098;28;20051;-75
2022/07/28 04:39:07;;;;;;;2.70;1.88;;;19.40;97.70;;;;;;5094988;28;20070;-75
2022/07/28 04:41:33;;;;;;;2.88;1.80;;;19.50;97.50;;;;;;5090331;28;20460;-75
2022/07/28 04:43:59;;;;;;;3.08;1.90;;;19.60;96.90;;;;;;5093979;28;20105;-74
2022/07/28 04:46:25;;;;;;;3.33;1.77;;;19.70;96.80;;;;;;5093647;28;20082;-73
2022/07/28 04:48:51;;;;;;;2.70;1.77;;;19.80;96.40;;;;;;5093616;28;20036;-74
2022/07/28 04:51:17;;;;;;;1.50;1.27;;;20.00;96.30;;;;;;5092183;28;20020;-72
2022/07/28 04:53:42;;;;;;;2.35;2.10;;;20.00;95.10;;;;;;5093839;28;20464;-75
2022/07/28 04:56:08;;;;;;;4.43;1.70;;;20.10;94.90;;;;;;5093985;28;20444;-74
2022/07/28 04:58:34;;;;;;;2.70;1.67;;;20.30;93.70;;;;;;5093678;28;20122;-74
2022/07/28 05:01:00;;;;;;;2.55;1.75;;;20.40;93.70;;;;;;5092520;28;20115;-74
2022/07/28 05:03:26;;;;;;;2.97;1.38;;;20.50;92.80;;;;;;5093253;28;20020;-74
2022/07/28 05:05:51;;;;;;;2.15;1.27;;;20.60;92.60;;;;;;5093336;28;20073;-74
2022/07/28 05:08:17;;;;;;;2.63;1.45;;;20.80;91.50;;;;;;5093125;28;20032;-74
2022/07/28 05:10:43;;;;;;;2.47;1.70;;;21.00;91.20;;;;;;5092809;28;20098;-74
2022/07/28 05:13:08;;;;;;;1.92;1.30;;;21.20;90.60;;;;;;5091934;28;20025;-74
2022/07/28 05:15:35;;;;;;;1.92;1.75;;;21.30;89.60;;;;;;5091395;28;20036;-73
2022/07/28 05:18:00;;;;;;;2.78;1.42;;;21.40;87.30;;;;;;5092039;28;20157;-72
2022/07/28 05:20:26;;;;;;;2.13;1.60;;;21.60;86.00;;;;;;5091910;28;20044;-72
2022/07/28 05:22:56;;;;;;;3.17;1.45;;;21.80;85.90;;;;;;5093853;28;20072;-77
2022/07/28 05:25:23;;;;;;;2.45;1.65;;;22.00;84.10;;;;;;5092978;28;20028;-76
2022/07/28 05:27:49;;;;;;;3.05;1.80;;;22.20;82.40;;;;;;5094103;28;20099;-80
2022/07/28 05:30:17;;;;;;;1.80;1.40;;;22.20;79.20;;;;;;5094247;28;20048;-78
2022/07/28 05:32:48;;;;;;;3.50;1.50;;;22.30;78.50;;;;;;5093382;28;20024;-79
2022/07/28 05:35:14;;;;;;;2.83;1.42;;;22.50;77.20;;;;;;5092723;28;20031;-78
2022/07/28 05:37:39;;;;;;;2.90;1.50;;;22.70;78.00;;;;;;5093185;28;20036;-79
2022/07/28 05:40:12;;;;;;;1.77;1.35;;;22.90;74.70;;;;;;5092595;28;20023;-79
2022/07/28 05:42:39;;;;;;;2.60;1.80;;;23.00;74.50;;;;;;5092974;28;20032;-77
2022/07/28 05:45:07;;;;;;;2.22;1.50;;;23.30;73.60;;;;;;5092997;28;20116;-78
2022/07/28 05:47:40;;;;;;;3.10;1.65;;;23.70;72.10;;;;;;5092471;28;20334;-77
2022/07/28 05:50:06;;;;;;;3.55;1.23;;;24.00;68.50;;;;;;5093038;28;20489;-78
2022/07/28 05:52:32;;;;;;;1.80;1.40;;;24.40;68.00;;;;;;5092387;28;20020;-78
2022/07/28 05:54:58;;;;;;;1.95;1.52;;;24.80;66.80;;;;;;5092950;28;20044;-77
2022/07/28 05:57:23;;;;;;;4.25;1.60;;;25.40;64.80;;;;;;5092372;28;20032;-77
2022/07/28 05:59:49;;;;;;;3.83;2.03;;;26.00;62.40;;;;;;5092985;28;20099;-78
2022/07/28 06:02:15;;;;;;;2.28;1.27;;;26.90;60.40;;;;;;5091720;28;20035;-74
2022/07/28 06:04:41;;;;;;;2.53;1.40;;;27.80;57.70;;;;;;5092166;28;20108;-76
2022/07/28 06:07:06;;;;;;;2.50;1.38;;;28.50;54.30;;;;;;5092652;28;20439;-76
2022/07/28 06:09:32;;;;;;;3.40;1.20;;;29.10;52.80;;;;;;5092676;28;20024;-74
2022/07/28 06:11:58;;;;;;;3.15;1.23;;;29.80;50.80;;;;;;5092759;28;20020;-74
2022/07/28 06:14:23;;;;;;;2.65;1.20;;;30.30;49.70;;;;;;5091702;28;20032;-73
2022/07/28 06:16:49;;;;;;;2.35;1.05;;;30.70;47.00;;;;;;5092657;28;20107;-74
2022/07/28 06:19:16;;;;;;;1.70;1.38;;;31.10;46.20;;;;;;5091812;28;20032;-73
2022/07/28 06:21:42;;;;;;;3.40;1.55;;;31.40;44.60;;;;;;5092584;28;20182;-74
2022/07/28 06:24:08;;;;;;;2.72;1.05;;;31.60;44.20;;;;;;5092519;28;20111;-74
2022/07/28 06:26:36;;;;;;;2.28;1.40;;;31.70;43.00;;;;;;5092157;28;20499;-74
2022/07/28 06:29:02;;;;;;;1.65;1.20;;;31.60;43.80;;;;;;5092398;28;20055;-75
2022/07/28 06:31:28;;;;;;;1.20;1.10;;;31.90;43.80;;;;;;5092303;28;20036;-74
2022/07/28 06:33:54;;;;;;;2.28;1.33;;;31.70;43.40;;;;;;5092565;28;20024;-74
2022/07/28 06:36:19;;;;;;;2.20;1.63;;;31.20;42.50;;;;;;5091912;28;20078;-74
2022/07/28 06:38:46;;;;;;;2.45;1.65;;;30.80;43.60;;;;;;5092511;28;20097;-74
2022/07/28 06:41:12;;;;;;;3.90;1.80;;;30.60;45.20;;;;;;5092411;28;20028;-75
2022/07/28 06:43:37;;;;;;;2.25;1.30;;;30.40;46.00;;;;;;5092272;28;20028;-75
2022/07/28 06:46:03;;;;;;;1.85;1.23;;;30.30;45.50;;;;;;5092385;28;20024;-74
2022/07/28 06:48:29;;;;;;;1.98;1.33;;;30.50;46.20;;;;;;5095351;28;20028;-74
2022/07/28 06:50:57;;;;;;;2.10;1.30;;;30.50;45.30;;;;;;5096158;28;20033;-74
2022/07/28 06:53:22;;;;;;;3.38;1.17;;;30.10;46.10;;;;;;5095926;28;20058;-74
2022/07/28 06:55:48;;;;;;;1.55;1.17;;;30.40;46.30;;;;;;5096456;28;20500;-74
2022/07/28 06:58:14;;;;;;;2.03;1.23;;;30.60;47.10;;;;;;5095735;28;20049;-72
2022/07/28 07:00:39;;;;;;;4.63;1.55;;;31.10;45.50;;;;;;5095955;28;20028;-74
2022/07/28 07:03:05;;;;;;;3.50;1.38;;;31.30;45.00;;;;;;5096178;28;20059;-74
2022/07/28 07:05:30;;;;;;;1.60;1.38;;;31.30;45.00;;;;;;5095466;28;20028;-74
2022/07/28 07:07:56;;;;;;;3.90;1.52;;;32.10;43.50;;;;;;5095960;28;20523;-74
2022/07/28 07:10:22;;;;;;;2.22;1.60;;;32.40;43.00;;;;;;5095238;28;20025;-74
2022/07/28 07:12:48;;;;;;;3.28;1.33;;;32.60;42.20;;;;;;5095888;28;20216;-74
2022/07/28 07:15:14;;;;;;;3.40;1.60;;;33.30;41.40;;;;;;5095806;28;20027;-74
2022/07/28 07:17:40;;;;;;;1.73;1.27;;;32.90;41.60;;;;;;5095588;28;20039;-74
2022/07/28 07:20:08;;;;;;;3.35;1.40;;;32.40;41.90;;;;;;5096051;28;20024;-74
2022/07/28 07:22:34;;;;;;;3.97;1.45;;;32.20;42.60;;;;;;5095296;28;20468;-74
2022/07/28 07:25:10;;;;;;;4.07;1.65;;;31.70;42.70;;;;;;5095380;28;20035;-74
2022/07/28 07:27:36;;;;;;;2.75;1.63;;;31.20;43.40;;;;;;5095199;28;20036;-75
2022/07/28 07:30:04;;;;;;;3.08;1.63;;;30.60;44.50;;;;;;5095885;28;20044;-74
2022/07/28 07:32:30;;;;;;;1.88;1.17;;;30.20;46.30;;;;;;5095188;28;20027;-74
2022/07/28 07:34:55;;;;;;;3.42;1.55;;;31.30;45.60;;;;;;5095582;28;20032;-74
2022/07/28 07:37:21;;;;;;;3.03;2.22;;;31.90;44.90;;;;;;5095095;28;20101;-74
2022/07/28 07:39:47;;;;;;;1.52;1.38;;;31.50;44.30;;;;;;5078784;28;20099;-75
2022/07/28 07:42:12;;;;;;;3.70;1.70;;;31.50;45.20;;;;;;5075314;28;20025;-74
2022/07/28 07:44:38;;;;;;;3.00;1.85;;;32.50;43.00;;;;;;5074759;28;20108;-75
2022/07/28 07:47:07;;;;;;;1.88;1.60;;;33.40;42.50;;;;;;5075064;28;20029;-74
2022/07/28 07:49:32;;;;;;;4.00;1.50;;;34.60;40.80;;;;;;5079396;28;20024;-74
2022/07/28 07:51:58;;;;;;;2.22;1.60;;;34.90;39.50;;;;;;5095672;28;20032;-75
2022/07/28 07:54:23;;;;;;;1.55;1.35;;;35.40;38.60;;;;;;5094545;28;20032;-74
2022/07/28 07:56:49;;;;;;;4.68;1.63;;;36.00;38.20;;;;;;5095194;28;20032;-75
2022/07/28 07:59:15;;;;;;;2.22;1.50;;;36.50;38.00;;;;;;5093768;28;20453;-75
2022/07/28 08:01:40;;;;;;;3.00;1.50;;;37.30;37.20;;;;;;5094807;28;20020;-74
2022/07/28 08:04:06;;;;;;;4.32;1.80;;;37.80;36.20;;;;;;5095069;28;20020;-74
2022/07/28 08:06:32;;;;;;;1.75;1.35;;;37.10;35.50;;;;;;5094964;28;20082;-74
2022/07/28 08:08:57;;;;;;;4.70;1.52;;;37.30;35.50;;;;;;5094930;28;20071;-74
2022/07/28 08:11:23;;;;;;;2.95;1.80;;;36.00;36.50;;;;;;5094574;28;20369;-73
2022/07/28 08:13:49;;;;;;;2.47;1.67;;;35.90;37.50;;;;;;5094777;28;20127;-74
2022/07/28 08:16:14;;;;;;;1.33;1.20;;;36.80;36.70;;;;;;5094731;28;20020;-74
2022/07/28 08:18:40;;;;;;;2.72;2.00;;;36.50;36.60;;;;;;5094452;28;20028;-74
2022/07/28 08:21:05;;;;;;;2.28;1.73;;;35.50;36.70;;;;;;5095140;28;20020;-74
2022/07/28 08:23:31;;;;;;;2.70;1.40;;;34.60;38.00;;;;;;5094183;28;20035;-74
2022/07/28 08:25:57;;;;;;;2.22;1.45;;;33.70;39.10;;;;;;5094526;28;20024;-74
2022/07/28 08:28:22;;;;;;;3.80;2.13;;;33.40;40.20;;;;;;5093814;28;20036;-74
2022/07/28 08:30:48;;;;;;;6.43;1.90;;;33.90;40.30;;;;;;5094528;28;20099;-74
2022/07/28 08:33:14;;;;;;;2.40;1.50;;;33.80;39.70;;;;;;5094116;28;20115;-74
2022/07/28 08:35:40;;;;;;;1.85;1.10;;;34.00;40.40;;;;;;5094025;28;20024;-74
2022/07/28 08:38:06;;;;;;;3.22;2.05;;;35.00;39.30;;;;;;5094480;28;20033;-74
2022/07/28 08:40:35;;;;;;;3.10;1.50;;;35.90;38.10;;;;;;5093831;28;20056;-74
2022/07/28 08:43:21;;;;;;;2.80;1.60;;;36.50;37.60;;;;;;5094235;28;20069;-74
2022/07/28 08:45:47;;;;;;;3.28;1.60;;;36.80;36.70;;;;;;5094004;28;20388;-74
2022/07/28 08:48:15;;;;;;;3.42;1.85;;;37.00;36.30;;;;;;5093985;28;20032;-74
2022/07/28 08:50:42;;;;;;;3.65;2.10;;;36.90;36.40;;;;;;5093870;28;20380;-74
2022/07/28 08:53:09;;;;;;;2.55;1.60;;;36.90;36.30;;;;;;5094043;28;20107;-75
2022/07/28 08:55:35;;;;;;;2.35;2.03;;;36.40;36.70;;;;;;5093545;28;20035;-74
2022/07/28 08:58:01;;;;;;;3.10;1.65;;;36.00;36.90;;;;;;5093667;28;20385;-74
2022/07/28 09:00:27;;;;;;;2.00;1.50;;;35.60;37.60;;;;;;5093149;28;20032;-74
2022/07/28 09:02:54;;;;;;;1.83;1.70;;;35.20;38.30;;;;;;5093864;28;20024;-75
2022/07/28 09:05:21;;;;;;;2.80;1.88;;;34.30;38.90;;;;;;5093752;28;20024;-74
2022/07/28 09:07:49;;;;;;;2.33;1.75;;;33.90;40.30;;;;;;5093665;28;20036;-74
2022/07/28 09:10:17;;;;;;;2.47;2.00;;;33.20;40.50;;;;;;5093236;28;20032;-74
2022/07/28 09:12:43;;;;;;;2.40;1.92;;;32.70;41.60;;;;;;5093153;28;20411;-74
2022/07/28 09:15:10;;;;;;;4.60;2.10;;;32.10;42.50;;;;;;5093780;28;20032;-74
2022/07/28 09:17:37;;;;;;;2.60;1.98;;;31.70;43.00;;;;;;5093379;28;20028;-74
2022/07/28 09:20:03;;;;;;;3.85;2.30;;;31.40;43.80;;;;;;5093628;28;20066;-74
2022/07/28 09:22:32;;;;;;;3.75;2.05;;;30.80;44.10;;;;;;5093124;28;20032;-74
2022/07/28 09:24:58;;;;;;;3.97;2.40;;;30.50;45.20;;;;;;5093820;28;20032;-74
2022/07/28 09:27:23;;;;;;;3.08;2.03;;;30.20;45.80;;;;;;5092914;28;20032;-73
2022/07/28 09:29:58;;;;;;;4.50;2.40;;;29.90;46.30;;;;;;5093002;28;20155;-74
2022/07/28 09:32:26;;;;;;;3.72;2.60;;;29.60;46.70;;;;;;5093483;28;20028;-73
2022/07/28 09:34:52;;;;;;;3.05;2.33;;;29.50;47.10;;;;;;5093352;28;20031;-74
2022/07/28 09:37:25;;;;;;;3.85;2.50;;;29.30;47.60;;;;;;5093505;28;20032;-74
2022/07/28 09:39:53;;;;;;;5.20;2.20;;;29.10;48.00;;;;;;5093034;28;20028;-74
2022/07/28 09:42:19;;;;;;;2.90;2.20;;;28.90;48.70;;;;;;5093018;28;20165;-74
2022/07/28 09:45:05;;;;;;;2.45;2.25;;;28.90;49.00;;;;;;5092551;28;20586;-74
2022/07/28 09:47:31;;;;;;;1.83;1.52;;;28.80;49.50;;;;;;5092607;28;20487;-74
2022/07/28 09:49:57;;;;;;;3.13;2.00;;;28.80;50.60;;;;;;5092918;28;20060;-74
2022/07/28 09:52:35;;;;;;;3.25;1.95;;;28.80;50.70;;;;;;5092902;28;20114;-75
2022/07/28 09:55:10;;;;;;;2.58;2.10;;;28.90;49.50;;;;;;5092716;28;20473;-74
2022/07/28 09:57:38;;;;;;;3.70;2.47;;;28.60;48.60;;;;;;5092223;28;20032;-73
2022/07/28 10:00:08;;;;;;;6.60;2.20;;;28.60;48.80;;;;;;5091534;28;20028;-74
2022/07/28 10:02:34;;;;;;;4.40;2.40;;;28.50;49.10;;;;;;5092139;28;20024;-74
2022/07/28 10:05:00;;;;;;;4.30;2.00;;;28.60;49.20;;;;;;5092487;28;20604;-74
2022/07/28 10:07:28;;;;;;;10.02;2.40;;;28.50;49.10;;;;;;5092103;28;20062;-73
2022/07/28 10:10:03;;;;;;;3.35;2.05;;;28.50;49.20;;;;;;5092624;28;20435;-74
2022/07/28 10:12:32;;;;;;;7.00;2.40;;;28.40;49.10;;;;;;5092045;28;20059;-73
2022/07/28 10:18:15;;;;;;;2.30;1.92;;;28.20;49.40;;;;;;5069828;28;20032;-74
2022/07/28 10:20:42;;;;;;;3.25;1.88;;;28.30;49.00;;;;;;5086840;28;20047;-73
2022/07/28 10:23:12;;;;;;;5.30;1.70;;;28.30;48.70;;;;;;5094904;28;20453;-74
2022/07/28 10:25:39;;;;;;;2.90;1.88;;;28.40;48.70;;;;;;5096078;28;20529;-74
2022/07/28 10:28:05;;;;;;;2.35;1.90;;;28.40;48.40;;;;;;5096499;28;20036;-74
2022/07/28 10:30:39;;;;;;;3.28;2.20;;;28.60;49.80;;;;;;5096417;28;20052;-74
2022/07/28 10:33:12;;;;;;;3.90;2.05;;;28.70;49.50;;;;;;5096735;28;20020;-74
2022/07/28 10:35:39;;;;;;;5.25;2.92;;;28.70;48.10;;;;;;5096081;28;20085;-74
2022/07/28 10:38:11;;;;;;;2.72;2.22;;;28.60;48.50;;;;;;5096534;28;20032;-73
2022/07/28 10:40:44;;;;;;;3.08;2.00;;;28.50;48.50;;;;;;5096326;28;20031;-73
2022/07/28 10:43:10;;;;;;;3.47;2.03;;;28.60;48.90;;;;;;5096284;28;20028;-73
2022/07/28 10:45:37;;;;;;;2.83;1.98;;;28.70;49.00;;;;;;5096291;28;20521;-73
2022/07/28 10:48:07;;;;;;;2.63;2.00;;;28.80;49.00;;;;;;5096321;28;20078;-73
2022/07/28 10:50:34;;;;;;;3.45;1.73;;;28.90;48.20;;;;;;5095622;28;20028;-74
2022/07/28 10:53:02;;;;;;;3.08;2.28;;;29.10;48.20;;;;;;5096293;28;20028;-74
2022/07/28 10:55:51;;;;;;;2.65;2.20;;;29.00;47.30;;;;;;5129140;27;20472;-73
2022/07/28 10:58:48;;;;;;;3.47;2.05;;;28.90;47.00;;;;;;5095988;28;20028;-74
2022/07/28 11:01:37;;;;;;;4.30;2.17;;;28.80;47.50;;;;;;5095746;28;20028;-74
2022/07/28 11:04:02;;;;;;;3.30;1.95;;;28.70;47.20;;;;;;5096032;28;20031;-74
2022/07/28 11:06:38;;;;;;;1.92;1.70;;;28.80;47.60;;;;;;5095736;28;20028;-74
2022/07/28 11:09:16;;;;;;;2.22;1.70;;;29.00;48.40;;;;;;5095889;28;20167;-74
2022/07/28 11:11:53;;;;;;;1.88;1.67;;;29.10;47.60;;;;;;5095300;28;20432;-74
2022/07/28 11:14:30;;;;;;;2.08;1.52;;;29.30;47.40;;;;;;5095959;28;20024;-73
2022/07/28 11:17:02;;;;;;;1.77;1.67;;;29.30;45.30;;;;;;5095945;28;20492;-73
2022/07/28 11:19:53;;;;;;;3.97;1.70;;;29.30;45.30;;;;;;5096059;28;20032;-73
2022/07/28 11:22:20;;;;;;;2.42;1.77;;;29.30;45.20;;;;;;5095812;28;20028;-73
2022/07/28 11:27:39;;;;;;;2.13;1.70;;;29.30;45.50;;;;;;5095523;28;20036;-73
2022/07/28 11:30:05;;;;;;;2.45;1.40;;;29.30;44.20;;;;;;5095734;28;20059;-74
2022/07/28 11:32:49;;;;;;;2.25;1.60;;;29.20;43.90;;;;;;5094677;28;20107;-73
2022/07/28 11:35:16;;;;;;;1.98;1.77;;;29.30;45.20;;;;;;5095272;28;20024;-74
2022/07/28 11:38:00;;;;;;;2.22;1.75;;;29.20;45.70;;;;;;5094800;28;20031;-74
2022/07/28 11:40:43;;;;;;;2.45;1.60;;;29.30;46.30;;;;;;5095509;28;20024;-74
2022/07/28 11:43:28;;;;;;;3.47;1.60;;;29.30;45.60;;;;;;5095316;28;20508;-74
2022/07/28 11:46:00;;;;;;;1.73;1.52;;;29.30;44.50;;;;;;5094907;28;20073;-74
2022/07/28 11:48:27;;;;;;;2.42;1.67;;;29.30;44.20;;;;;;5095062;28;20028;-74
2022/07/28 11:51:02;;;;;;;3.28;1.50;;;29.30;44.50;;;;;;5094976;28;20024;-74
2022/07/28 11:53:42;;;;;;;2.90;1.55;;;29.40;44.10;;;;;;5095000;28;20032;-74
2022/07/28 11:56:10;;;;;;;2.25;1.52;;;29.60;44.40;;;;;;5095194;28;20028;-74
2022/07/28 11:58:37;;;;;;;1.30;1.20;;;29.70;42.80;;;;;;5094289;28;20032;-74
2022/07/28 12:01:18;;;;;;;2.35;1.35;;;29.70;41.50;;;;;;5094792;28;20447;-74
2022/07/28 12:03:49;;;;;;;1.55;1.30;;;29.70;40.90;;;;;;5094719;28;20066;-74
2022/07/28 12:06:15;;;;;;;1.80;1.40;;;29.80;42.20;;;;;;5095117;28;20036;-74
2022/07/28 12:08:57;;;;;;;1.98;1.50;;;29.80;43.60;;;;;;5094596;28;20052;-74
2022/07/28 12:11:23;;;;;;;3.38;1.25;;;29.70;43.00;;;;;;5094857;28;20020;-74
2022/07/28 12:14:12;;;;;;;2.13;1.40;;;29.70;41.80;;;;;;5094376;28;20034;-74
2022/07/28 12:16:40;;;;;;;1.80;1.33;;;29.60;42.20;;;;;;5094480;28;20107;-74
2022/07/28 12:19:07;;;;;;;2.45;1.52;;;29.50;42.50;;;;;;5094825;28;20376;-74
2022/07/28 12:21:42;;;;;;;2.03;1.30;;;29.40;42.30;;;;;;5094345;28;20031;-74
2022/07/28 12:24:10;;;;;;;1.48;1.38;;;29.30;42.70;;;;;;5094613;28;20217;-75
2022/07/28 12:26:38;;;;;;;2.33;1.33;;;29.30;42.40;;;;;;5094235;28;20025;-73
2022/07/28 12:29:04;;;;;;;1.55;1.27;;;29.20;42.20;;;;;;5094234;28;20055;-74
2022/07/28 12:31:36;;;;;;;1.55;1.42;;;29.20;42.60;;;;;;5094442;28;20056;-74
2022/07/28 12:34:08;;;;;;;2.03;1.60;;;29.10;42.20;;;;;;5094585;28;20024;-73
2022/07/28 12:36:35;;;;;;;2.90;1.80;;;29.00;42.40;;;;;;5094399;28;20058;-73
2022/07/28 12:39:03;;;;;;;2.00;1.42;;;29.00;43.00;;;;;;5094327;28;20032;-74
2022/07/28 12:41:37;;;;;;;2.00;1.80;;;29.00;43.10;;;;;;5094210;28;20074;-74
2022/07/28 12:44:04;;;;;;;2.03;1.40;;;28.90;42.90;;;;;;5093775;28;20082;-74
2022/07/28 12:46:30;;;;;;;1.65;1.38;;;28.90;43.10;;;;;;5093913;28;20036;-73
2022/07/28 12:48:58;;;;;;;1.67;1.50;;;28.80;43.60;;;;;;5093585;28;20036;-74
2022/07/28 12:51:30;;;;;;;1.75;1.27;;;28.70;43.70;;;;;;5093966;28;20023;-74
2022/07/28 12:53:56;;;;;;;1.67;1.50;;;28.70;44.00;;;;;;5093677;28;20028;-74
2022/07/28 12:56:22;;;;;;;3.00;1.60;;;28.70;43.90;;;;;;5094010;28;20033;-74
2022/07/28 12:58:53;;;;;;;2.00;1.60;;;28.70;44.30;;;;;;5093501;28;20031;-74
2022/07/28 13:01:19;;;;;;;2.33;1.42;;;28.60;44.30;;;;;;5093845;28;20064;-74